Flight Track Log - Related Links

Times and Time Zones

All times are in EDT time to prevent confusion due to time zone crossing. See the SWA470 flight status page for this flight to view local times or setup timezone preferences in your user account.

Time Position Orientation Groundspeed Altitude Reporting Facility
EDT Latitude Longitude Course Direction KTS MPH feet Rate Location/Type
Sun 10:30:57 AM 33.4333 -111.9833 90° East 154 177 2,200  Level Phoenix TRACON
Sun 10:31:45 AM 33.4333 -111.9333 90° East 208 239 4,500 2,737 Climbing Phoenix TRACON
Sun 10:32:51 AM 33.4667 -111.8667 59° Northeast 260 299 7,400 2,449 Climbing Phoenix TRACON
Sun 10:33:23 AM 33.4878 -111.8578 19° North 280 322 8,500 3,128 Climbing Albuquerque Center
Sun 10:34:25 AM 33.5925 -111.8364 10° North 320 368 12,300 3,463 Climbing Albuquerque Center
Sun 10:35:26 AM 33.6886 -111.8133 11° North 348 400 15,600 3,268 Climbing Albuquerque Center
Sun 10:36:28 AM 33.7969 -111.7886 11° North 367 422 19,000 2,927 Climbing Albuquerque Center
Sun 10:37:29 AM 33.9008 -111.8011 354° North 382 440 21,600 2,098 Climbing Albuquerque Center
Sun 10:38:31 AM 34.0219 -111.8186 353° North 405 466 23,300 1,805 Climbing Albuquerque Center
Sun 10:39:32 AM 34.1428 -111.8394 352° North 435 501 25,300 1,805 Climbing Albuquerque Center
Sun 10:40:34 AM 34.2622 -111.8603 352° North 450 518 27,000 1,610 Climbing Albuquerque Center
Sun 10:41:35 AM 34.3919 -111.8817 352° North 464 534 28,600 1,561 Climbing Albuquerque Center
Sun 10:42:37 AM 34.5244 -111.9044 352° North 475 547 30,200 1,610 Climbing Albuquerque Center
Sun 10:43:38 AM 34.6592 -111.9275 352° North 485 558 31,900 878 Climbing Albuquerque Center
Sun 10:44:40 AM 34.7992 -111.9497 353° North 488 562 32,000 341 Climbing Albuquerque Center
Sun 10:45:41 AM 34.9331 -111.9714 352° North 488 562 32,600 1,073 Climbing Albuquerque Center
Sun 10:46:43 AM 35.0961 -112.0006 352° North 496 571 34,200 1,659 Climbing Albuquerque Center
Sun 10:47:44 AM 35.2339 -112.0228 352° North 501 577 36,000 1,756 Climbing Albuquerque Center
Sun 10:48:46 AM 35.3694 -112.0447 352° North 499 574 37,800 968 Climbing Albuquerque Center
Sun 10:49:48 AM 35.5008 -112.0669 352° North 493 567 38,000 98 Climbing Albuquerque Center
Sun 10:50:49 AM 35.6228 -112.1081 345° North 474 545 38,000  Level Albuquerque Center
Sun 10:51:37 AM 35.7083 -112.1686 330° Northwest 451 519 38,000  Level Los Angeles Center
Sun 10:52:38 AM 35.8178 -112.2461 330° Northwest 457 526 38,000  Level Los Angeles Center
Sun 10:53:40 AM 35.9422 -112.3353 330° Northwest 457 526 38,000 488 Level Los Angeles Center
Sun 10:54:41 AM 36.0519 -112.4147 330° Northwest 457 526 39,000 492 Climbing Los Angeles Center
Sun 10:55:42 AM 36.1608 -112.4950 329° Northwest 455 524 39,000  Level Los Angeles Center
Sun 10:56:44 AM 36.2689 -112.5742 329° Northwest 453 521 39,000  Level Los Angeles Center
Sun 10:57:45 AM 36.3758 -112.6542 329° Northwest 451 519 39,000 197 Level Los Angeles Center
Sun 10:58:46 AM 36.5067 -112.7503 329° Northwest 454 522 39,400 488 Climbing Los Angeles Center
Sun 10:59:48 AM 36.6156 -112.8317 329° Northwest 455 524 40,000 324 Climbing Los Angeles Center
Sun 11:00:37 AM 36.7031 -112.8961 329° Northwest 456 525 40,000  Level Los Angeles Center
Sun 11:01:38 AM 36.8122 -112.9786 329° Northwest 456 525 40,000  Level Los Angeles Center
Sun 11:02:39 AM 36.9219 -113.0603 329° Northwest 458 527 40,000  Level Los Angeles Center
Sun 11:03:41 AM 37.0311 -113.1428 329° Northwest 458 527 40,000  Level Los Angeles Center
Sun 11:04:42 AM 37.1428 -113.2275 329° Northwest 464 534 40,000  Level Los Angeles Center
Sun 11:05:44 AM 37.2528 -113.3117 329° Northwest 462 532 40,000  Level Los Angeles Center
Sun 11:06:33 AM 37.3392 -113.3764 329° Northwest 454 522 40,000  Level Los Angeles Center
Sun 11:07:35 AM 37.4481 -113.4583 329° Northwest 454 522 40,000  Level Los Angeles Center
Sun 11:08:37 AM 37.5572 -113.5431 328° Northwest 458 527 40,000  Level Los Angeles Center
Sun 11:09:38 AM 37.6892 -113.6439 329° Northwest 460 529 40,000  Level Los Angeles Center
Sun 11:10:11 AM 37.7325 -113.6783 328° Northwest 462 532 40,000  Level Salt Lake Center
Sun 11:11:13 AM 37.8425 -113.7631 329° Northwest 462 532 40,000  Level Salt Lake Center
Sun 11:12:15 AM 37.9756 -113.8669 328° Northwest 465 535 40,000  Level Salt Lake Center
Sun 11:13:17 AM 38.0847 -113.9542 328° Northwest 464 534 40,000  Level Salt Lake Center
Sun 11:14:19 AM 38.1981 -114.0378 330° Northwest 468 539 40,000  Level Salt Lake Center
Sun 11:15:21 AM 38.3089 -114.1239 329° Northwest 467 537 40,000  Level Salt Lake Center
Sun 11:16:23 AM 38.4178 -114.2100 328° Northwest 462 532 40,000  Level Salt Lake Center
Sun 11:17:25 AM 38.5267 -114.2967 328° Northwest 461 531 40,000  Level Salt Lake Center
Sun 11:18:27 AM 38.6575 -114.3994 328° Northwest 461 531 40,000  Level Salt Lake Center
Sun 11:19:29 AM 38.7681 -114.4844 329° Northwest 463 533 40,000  Level Salt Lake Center
Sun 11:20:31 AM 38.8778 -114.5728 328° Northwest 465 535 40,000  Level Salt Lake Center
Sun 11:21:33 AM 38.9861 -114.6597 328° Northwest 462 532 40,000  Level Salt Lake Center
Sun 11:22:35 AM 39.0950 -114.7492 327° Northwest 464 534 40,000  Level Salt Lake Center
Sun 11:23:37 AM 39.2156 -114.8467 328° Northwest 464 534 40,000  Level Salt Lake Center
Sun 11:24:39 AM 39.3189 -114.9328 327° Northwest 463 533 40,000  Level Salt Lake Center
Sun 11:25:41 AM 39.4422 -115.0308 328° Northwest 465 535 40,000  Level Salt Lake Center
Sun 11:26:43 AM 39.5492 -115.1139 329° Northwest 467 537 40,000  Level Salt Lake Center
Sun 11:27:45 AM 39.6714 -115.2153 327° Northwest 467 537 40,000  Level Salt Lake Center
Sun 11:28:47 AM 39.7764 -115.3022 328° Northwest 468 539 40,000  Level Salt Lake Center
Sun 11:29:49 AM 39.8997 -115.4044 328° Northwest 471 542 40,000  Level Salt Lake Center
Sun 11:30:51 AM 40.0064 -115.4917 328° Northwest 473 544 40,000  Level Salt Lake Center
Sun 11:31:54 AM 40.1300 -115.5944 328° Northwest 473 544 40,000  Level Salt Lake Center
Sun 11:32:56 AM 40.2356 -115.6822 328° Northwest 472 543 40,000  Level Salt Lake Center
Sun 11:33:58 AM 40.3578 -115.7856 327° Northwest 470 541 40,000  Level Salt Lake Center
Sun 11:35:00 AM 40.4586 -115.8739 326° Northwest 462 532 40,000  Level Salt Lake Center
Sun 11:36:02 AM 40.5825 -115.9783 327° Northwest 471 542 40,000  Level Salt Lake Center
Sun 11:37:04 AM 40.6886 -116.0672 328° Northwest 473 544 40,000  Level Salt Lake Center
Sun 11:38:06 AM 40.8092 -116.1714 327° Northwest 469 540 40,000  Level Salt Lake Center
Sun 11:39:08 AM 40.9142 -116.2625 327° Northwest 473 544 40,000  Level Salt Lake Center
Sun 11:40:10 AM 41.0389 -116.3683 327° Northwest 477 549 40,000  Level Salt Lake Center
Sun 11:41:12 AM 41.1428 -116.4597 326° Northwest 475 547 40,000  Level Salt Lake Center
Sun 11:42:14 AM 41.2642 -116.5658 327° Northwest 469 540 40,000  Level Salt Lake Center
Sun 11:43:16 AM 41.3672 -116.6556 327° Northwest 466 536 40,000  Level Salt Lake Center
Sun 11:44:18 AM 41.4919 -116.7633 327° Northwest 476 548 40,000  Level Salt Lake Center
Sun 11:45:20 AM 41.5933 -116.8550 326° Northwest 469 540 40,000  Level Salt Lake Center
Sun 11:46:22 AM 41.6978 -116.9461 327° Northwest 467 537 40,000  Level Salt Lake Center
Sun 11:47:24 AM 41.8203 -117.0525 327° Northwest 469 540 40,000  Level Salt Lake Center
Sun 11:48:26 AM 41.9250 -117.1467 326° Northwest 473 544 40,000  Level Salt Lake Center
Sun 11:49:28 AM 42.0467 -117.2558 326° Northwest 473 544 40,000  Level Salt Lake Center
Sun 11:50:30 AM 42.1506 -117.3486 327° Northwest 469 540 40,000  Level Salt Lake Center
Sun 11:51:32 AM 42.2728 -117.4592 326° Northwest 472 543 40,000  Level Salt Lake Center
Sun 11:52:34 AM 42.3781 -117.5533 327° Northwest 474 545 40,000  Level Salt Lake Center
Sun 11:54:38 AM 42.6044 -117.7611 326° Northwest 477 549 40,000  Level Salt Lake Center
Sun 11:55:40 AM 42.7267 -117.8742 326° Northwest 477 549 40,000  Level Salt Lake Center
Sun 11:56:42 AM 42.8311 -117.9703 326° Northwest 474 545 40,000  Level Salt Lake Center
Sun 11:57:44 AM 42.9525 -118.0842 326° Northwest 475 547 40,000  Level Salt Lake Center
Sun 11:58:46 AM 43.0569 -118.1806 326° Northwest 473 544 40,000  Level Salt Lake Center
Sun 11:59:48 AM 43.1714 -118.2864 326° Northwest 472 543 40,000  Level Salt Lake Center
Sun 12:00:50 PM 43.2803 -118.3831 327° Northwest 470 541 40,000  Level Salt Lake Center
Sun 12:01:53 PM 43.3875 -118.4872 325° Northwest 472 543 40,000  Level Salt Lake Center
Sun 12:02:55 PM 43.4953 -118.5889 326° Northwest 470 541 40,000  Level Salt Lake Center
Sun 12:03:57 PM 43.6036 -118.6908 326° Northwest 471 542 40,000  Level Salt Lake Center
Sun 12:04:59 PM 43.7317 -118.8153 325° Northwest 470 541 40,000  Level Salt Lake Center
Sun 12:06:01 PM 43.8386 -118.9164 326° Northwest 469 540 40,000  Level Salt Lake Center
Sun 12:07:03 PM 43.9461 -119.0200 325° Northwest 470 541 40,000  Level Salt Lake Center
Sun 12:08:05 PM 44.0525 -119.1236 325° Northwest 469 540 40,000  Level Salt Lake Center
Sun 12:09:07 PM 44.1600 -119.2289 325° Northwest 471 542 40,000  Level Salt Lake Center
Sun 12:10:09 PM 44.2664 -119.3319 325° Northwest 469 540 40,000  Level Salt Lake Center
Sun 12:11:11 PM 44.3936 -119.4575 325° Northwest 468 539 40,000  Level Salt Lake Center
Sun 12:12:13 PM 44.5000 -119.5622 325° Northwest 467 537 40,000  Level Salt Lake Center
Sun 12:13:15 PM 44.6069 -119.6686 325° Northwest 471 542 40,000  Level Salt Lake Center
Sun 12:14:21 PM 44.7583 -119.7278 344° North 489 563 40,000  Level Seattle Center
Sun 12:15:22 PM 44.8922 -119.7472 354° North 489 563 40,000  Level Seattle Center
Sun 12:16:23 PM 45.0242 -119.7658 354° North 492 566 40,000  Level Seattle Center
Sun 12:17:24 PM 45.1567 -119.7869 354° North 492 566 40,000  Level Seattle Center
Sun 12:18:25 PM 45.2911 -119.8069 354° North 490 564 40,000  Level Seattle Center
Sun 12:19:26 PM 45.4261 -119.8275 354° North 490 564 40,000  Level Seattle Center
Sun 12:20:27 PM 45.5589 -119.8464 354° North 484 557 40,000  Level Seattle Center
Sun 12:21:28 PM 45.7203 -119.8706 354° North 485 558 40,000  Level Seattle Center
Sun 12:22:29 PM 45.8536 -119.8903 354° North 484 557 40,000  Level Seattle Center
Sun 12:23:30 PM 45.9864 -119.9125 353° North 483 556 40,000 -197 Level Seattle Center
Sun 12:24:31 PM 46.1197 -119.9314 354° North 482 555 39,600 -1,131 Descending Seattle Center
Sun 12:25:32 PM 46.2533 -119.9494 355° North 482 555 37,700 -2,361 Descending Seattle Center
Sun 12:26:33 PM 46.3522 -120.0622 322° Northwest 466 536 34,800 -2,508 Descending Seattle Center
Sun 12:27:34 PM 46.4303 -120.1994 310° West 445 512 32,600 -2,213 Descending Seattle Center
Sun 12:28:35 PM 46.5064 -120.3336 310° West 435 501 30,300 -2,195 Descending Seattle Center
Sun 12:29:37 PM 46.5803 -120.4678 309° West 429 494 28,100 -2,098 Descending Seattle Center
Sun 12:30:38 PM 46.6436 -120.6028 304° West 408 470 26,000 -2,164 Descending Seattle Center
Sun 12:31:39 PM 46.7181 -120.7583 305° West 391 450 23,700 -2,066 Descending Seattle Center
Sun 12:32:40 PM 46.7758 -120.8836 304° West 377 434 21,800 -1,820 Descending Seattle Center
Sun 12:33:41 PM 46.8336 -121.0067 304° West 369 425 20,000 -1,869 Descending Seattle Center
Sun 12:34:42 PM 46.8900 -121.1258 305° West 360 414 18,000 -1,967 Descending Seattle Center
Sun 12:35:43 PM 46.9444 -121.2469 303° West 355 409 16,000 -1,869 Descending Seattle Center
Sun 12:36:44 PM 46.9983 -121.3606 305° West 342 394 14,200 -1,869 Descending Seattle Center
Sun 12:37:45 PM 47.0556 -121.4808 305° West 324 373 12,200 -1,328 Descending Seattle Center
Sun 12:38:46 PM 47.0853 -121.5900 292° West 290 334 11,500 -1,171 Descending Seattle Center
Sun 12:39:48 PM 47.1014 -121.7042 282° West 287 330 9,800 -1,489 Descending Seattle Center
Sun 12:41:03 PM 47.1211 -121.8500 281° West 278 320 8,100 -1,377 Descending Seattle Center
Sun 12:41:50 PM 47.1425 -121.9300 291° West 280 322 7,000 -1,333 Descending Seattle Center
Sun 12:42:51 PM 47.1825 -122.0214 303° West 265 305 5,700 -1,328 Descending Seattle Center
Sun 12:43:52 PM 47.2189 -122.1181 299° West 270 311 4,300 -1,180 Descending Seattle Center
Sun 12:44:53 PM 47.2531 -122.2131 298° West 263 303 3,300 -634 Descending Seattle Center
Sun 12:45:55 PM 47.2858 -122.3017 299° West 229 264 3,000 -390 Descending Seattle Center
Sun 12:46:56 PM 47.3294 -122.3181 346° North 174 200 2,500 -686 Descending Seattle Center
Sun 12:48:15 PM 47.3858 -122.3178 360° North 145 167 1,400 -787 Descending Seattle Center
Sun 12:48:58 PM 47.4122 -122.3186 359° North 137 158 900 -635 Descending Seattle Center
Sun 12:49:59 PM 47.4431 -122.3186 360° North 132 152 300 -590 Descending Seattle Center
Sun 12:51:00 PM 47.4499 -122.3118 34° Northeast  Level Estimated

Login

Don't have an account? Register now (free) for customized features, flight alerts, and more!